Time;durP1;ratioP1;P1;durP2;ratioP2;P2;SDS_P1;SDS_P2;PMS_P1;PMS_P2;Temp;Humidity;BMP_temperature;BMP_pressure;BME280_temperature;BME280_humidity;BME280_pressure;Samples;Min_cycle;Max_cycle;Signal;HPM_P1;HPM_P2
2022/06/21 00:02:16;;;;;;;7.28;3.20;;;10.10;99.90;;;;;;5033402;28;20043;-73
2022/06/21 00:04:42;;;;;;;4.57;3.10;;;10.00;99.90;;;;;;5043427;28;20115;-74
2022/06/21 00:07:14;;;;;;;2.78;2.47;;;10.20;99.90;;;;;;5046980;28;20017;-74
2022/06/21 00:09:40;;;;;;;4.28;2.90;;;10.00;99.90;;;;;;5068289;28;20021;-73
2022/06/21 00:12:09;;;;;;;3.70;3.15;;;9.90;99.90;;;;;;5053892;28;20082;-73
2022/06/21 00:14:35;;;;;;;3.30;3.00;;;9.80;99.90;;;;;;5043480;28;20017;-73
2022/06/21 00:17:00;;;;;;;4.05;3.08;;;9.90;99.90;;;;;;5063142;28;20752;-73
2022/06/21 00:19:26;;;;;;;5.15;3.08;;;9.50;99.90;;;;;;5045376;28;20479;-73
2022/06/21 00:21:52;;;;;;;5.00;3.10;;;9.60;99.90;;;;;;5057352;28;20025;-73
2022/06/21 00:24:18;;;;;;;4.13;3.10;;;9.70;99.90;;;;;;5052003;28;20029;-73
2022/06/21 00:26:45;;;;;;;6.07;4.28;;;9.90;99.90;;;;;;5048239;28;20040;-74
2022/06/21 00:29:11;;;;;;;6.50;4.32;;;9.60;99.90;;;;;;5043362;28;20490;-73
2022/06/21 00:31:44;;;;;;;4.82;3.60;;;9.30;99.90;;;;;;5062045;28;20119;-73
2022/06/21 00:34:18;;;;;;;4.38;3.70;;;9.40;99.90;;;;;;5053036;28;20032;-73
2022/06/21 00:36:45;;;;;;;5.60;3.83;;;9.60;99.90;;;;;;5054217;28;20052;-73
2022/06/21 00:39:14;;;;;;;6.22;3.65;;;9.70;99.90;;;;;;5036290;28;20826;-72
2022/06/21 00:41:42;;;;;;;4.38;3.70;;;9.50;99.90;;;;;;5053568;28;20032;-73
2022/06/21 00:44:14;;;;;;;3.95;3.33;;;9.60;99.90;;;;;;5054374;28;20386;-73
2022/06/21 00:46:45;;;;;;;5.05;3.20;;;9.70;99.90;;;;;;5029316;28;20025;-73
2022/06/21 00:49:18;;;;;;;4.55;3.17;;;9.70;99.90;;;;;;5066926;28;20115;-73
2022/06/21 00:51:44;;;;;;;4.72;3.22;;;9.80;99.90;;;;;;5055888;28;20509;-73
2022/06/21 00:54:29;;;;;;;4.60;3.00;;;9.90;99.90;;;;;;5045513;28;20033;-74
2022/06/21 00:57:05;;;;;;;3.45;3.10;;;10.10;99.90;;;;;;5053849;28;20028;-74
2022/06/21 00:59:33;;;;;;;;;;;10.10;99.90;;;;;;5054375;28;20031;-73
2022/06/21 01:02:35;;;;;;;5.25;3.67;;;10.00;99.90;;;;;;5052922;28;19904;-72
2022/06/21 01:05:03;;;;;;;3.80;3.13;;;9.80;99.90;;;;;;5059713;28;20070;-73
2022/06/21 01:07:30;;;;;;;5.57;3.30;;;10.00;99.90;;;;;;5043095;28;20021;-72
2022/06/21 01:10:04;;;;;;;3.15;2.85;;;9.90;99.90;;;;;;5049166;28;20029;-72
2022/06/21 01:12:37;;;;;;;5.53;3.55;;;10.00;99.90;;;;;;5066289;28;20039;-73
2022/06/21 01:15:08;;;;;;;5.22;3.90;;;9.80;99.90;;;;;;5062499;28;20023;-73
2022/06/21 01:17:35;;;;;;;5.53;3.50;;;9.70;99.90;;;;;;5057446;28;20103;-74
2022/06/21 01:20:07;;;;;;;5.38;3.97;;;9.80;99.90;;;;;;5053917;28;20048;-73
2022/06/21 01:22:54;;;;;;;5.07;3.70;;;9.40;99.90;;;;;;5053405;28;20099;-73
2022/06/21 01:25:19;;;;;;;4.50;3.58;;;9.40;99.90;;;;;;5053597;28;20025;-73
2022/06/21 01:27:45;;;;;;;6.30;3.72;;;9.60;99.90;;;;;;5053324;28;20533;-73
2022/06/21 01:30:11;;;;;;;5.82;3.53;;;9.70;99.90;;;;;;5053083;28;20037;-74
2022/06/21 01:32:37;;;;;;;4.53;3.33;;;10.00;99.90;;;;;;5042227;28;20147;-73
2022/06/21 01:35:12;;;;;;;4.57;2.83;;;9.80;99.90;;;;;;5058548;28;20016;-73
2022/06/21 01:37:38;;;;;;;5.07;2.83;;;9.90;99.90;;;;;;5048000;28;20071;-73
2022/06/21 01:40:15;;;;;;;3.17;2.88;;;10.10;99.90;;;;;;5072993;28;20040;-72
2022/06/21 01:42:49;;;;;;;3.60;3.08;;;9.90;99.90;;;;;;5064409;28;20028;-73
2022/06/21 01:45:31;;;;;;;4.75;2.90;;;10.10;99.90;;;;;;5066086;28;20093;-73
2022/06/21 01:48:06;;;;;;;3.30;3.00;;;10.20;99.90;;;;;;5043680;28;20060;-73
2022/06/21 01:50:34;;;;;;;3.85;3.20;;;10.20;99.90;;;;;;5057693;28;20394;-73
2022/06/21 01:53:02;;;;;;;3.30;3.00;;;10.10;99.90;;;;;;5053370;28;20116;-73
2022/06/21 01:55:50;;;;;;;3.88;3.20;;;10.20;99.90;;;;;;5065197;28;20017;-73
2022/06/21 01:58:24;;;;;;;4.13;3.15;;;10.00;99.90;;;;;;5047936;28;20068;-73
2022/06/21 02:00:57;;;;;;;3.30;3.00;;;9.70;99.90;;;;;;5064510;28;20048;-73
2022/06/21 02:03:29;;;;;;;4.95;3.25;;;9.80;99.90;;;;;;5041659;28;20056;-73
2022/06/21 02:05:59;;;;;;;3.22;2.70;;;9.70;99.90;;;;;;5059350;28;20052;-72
2022/06/21 02:08:33;;;;;;;4.18;3.15;;;9.70;99.90;;;;;;5064861;28;20035;-72
2022/06/21 02:11:01;;;;;;;4.15;3.10;;;9.70;99.90;;;;;;5051965;28;20021;-73
2022/06/21 02:13:41;;;;;;;4.63;3.10;;;9.70;99.90;;;;;;5061792;28;20107;-73
2022/06/21 02:16:20;;;;;;;4.85;2.95;;;9.80;99.90;;;;;;5059117;28;20024;-73
2022/06/21 02:18:52;;;;;;;4.35;3.20;;;9.90;99.90;;;;;;5059627;28;20017;-74
2022/06/21 02:21:28;;;;;;;5.57;3.33;;;9.80;99.90;;;;;;5038840;28;20032;-73
2022/06/21 02:23:57;;;;;;;4.35;2.90;;;9.60;99.90;;;;;;5054567;28;20090;-73
2022/06/21 02:26:25;;;;;;;5.10;3.30;;;9.40;99.90;;;;;;5045356;28;20039;-73
2022/06/21 02:28:52;;;;;;;3.15;2.80;;;9.50;99.90;;;;;;5047751;28;20043;-73
2022/06/21 02:31:19;;;;;;;4.28;3.13;;;9.50;99.90;;;;;;5051533;28;20021;-73
2022/06/21 02:33:47;;;;;;;5.63;3.67;;;9.80;99.90;;;;;;5052266;28;20112;-74
2022/06/21 02:36:19;;;;;;;5.03;3.80;;;9.90;99.90;;;;;;5040773;28;20128;-72
2022/06/21 02:38:55;;;;;;;6.32;3.80;;;9.70;99.90;;;;;;5055931;28;20043;-73
2022/06/21 02:41:26;;;;;;;5.25;4.00;;;9.60;99.90;;;;;;5059301;28;20032;-73
2022/06/21 02:44:06;;;;;;;5.50;3.78;;;9.50;99.90;;;;;;5047672;28;20116;-74
2022/06/21 02:46:37;;;;;;;4.40;3.70;;;9.20;99.90;;;;;;5052023;28;20086;-73
2022/06/21 02:49:10;;;;;;;5.40;3.70;;;9.20;99.90;;;;;;5059875;28;20108;-73
2022/06/21 02:51:47;;;;;;;4.80;4.05;;;9.40;99.90;;;;;;5020004;28;21460;-73
2022/06/21 02:54:33;;;;;;;4.85;3.15;;;9.30;99.90;;;;;;5062587;28;20449;-74
2022/06/21 02:57:02;;;;;;;4.40;3.65;;;9.20;99.90;;;;;;5045162;28;20498;-73
2022/06/21 02:59:31;;;;;;;4.25;3.42;;;9.20;99.90;;;;;;5057683;28;20030;-73
2022/06/21 03:02:04;;;;;;;3.53;3.17;;;9.60;99.90;;;;;;5051153;28;20055;-73
2022/06/21 03:04:43;;;;;;;5.50;3.63;;;9.70;99.90;;;;;;5065213;28;20027;-73
2022/06/21 03:07:16;;;;;;;6.70;3.50;;;9.40;99.90;;;;;;5040924;28;20021;-73
2022/06/21 03:09:42;;;;;;;5.10;3.40;;;9.40;99.90;;;;;;5056303;28;20482;-73
2022/06/21 03:12:09;;;;;;;4.00;3.60;;;9.50;99.90;;;;;;5059834;28;20036;-72
2022/06/21 03:14:37;;;;;;;4.68;4.10;;;9.50;99.90;;;;;;5069652;28;20056;-72
2022/06/21 03:17:04;;;;;;;5.10;3.70;;;9.40;99.90;;;;;;5060106;28;20483;-72
2022/06/21 03:19:38;;;;;;;5.20;3.63;;;9.40;99.90;;;;;;5065032;28;20029;-73
2022/06/21 03:22:16;;;;;;;4.97;3.30;;;9.30;99.90;;;;;;5063676;28;20629;-73
2022/06/21 03:24:41;;;;;;;5.20;3.38;;;8.70;99.90;;;;;;5029409;28;20136;-73
2022/06/21 03:27:18;;;;;;;4.15;3.58;;;9.20;99.90;;;;;;5058127;28;20489;-73
2022/06/21 03:29:44;;;;;;;4.90;3.80;;;9.10;99.90;;;;;;5044405;28;20024;-74
2022/06/21 03:32:11;;;;;;;4.80;3.78;;;9.30;99.90;;;;;;5046234;28;20033;-73
2022/06/21 03:34:37;;;;;;;4.80;4.30;;;9.20;99.90;;;;;;5060826;28;20020;-73
2022/06/21 03:37:03;;;;;;;5.20;3.63;;;9.00;99.90;;;;;;5037480;28;20021;-73
2022/06/21 03:42:23;;;;;;;7.05;4.15;;;9.30;99.90;;;;;;5066067;28;20040;-74
2022/06/21 03:44:57;;;;;;;3.95;3.22;;;9.30;99.90;;;;;;5051453;28;20032;-74
2022/06/21 03:47:42;;;;;;;5.18;3.42;;;9.30;99.90;;;;;;5027829;28;20016;-73
2022/06/21 03:50:14;;;;;;;4.47;4.07;;;9.30;99.90;;;;;;5060797;28;20044;-74
2022/06/21 03:53:04;;;;;;;4.65;3.88;;;8.80;99.90;;;;;;5062794;28;20111;-74
2022/06/21 03:55:51;;;;;;;4.68;3.22;;;8.70;99.90;;;;;;5029961;28;20024;-74
2022/06/21 03:58:56;;;;;;;4.15;3.50;;;9.00;99.90;;;;;;5038941;28;20134;-74
2022/06/21 04:01:25;;;;;;;3.83;3.47;;;9.10;99.90;;;;;;5056986;28;20029;-73
2022/06/21 04:04:03;;;;;;;4.15;3.63;;;9.10;99.90;;;;;;5071278;28;20588;-73
2022/06/21 04:06:42;;;;;;;5.38;3.55;;;9.00;99.90;;;;;;5057788;28;20462;-73
2022/06/21 04:09:46;;;;;;;3.70;3.38;;;9.10;99.90;;;;;;5072750;28;20103;-73
2022/06/21 04:12:16;;;;;;;5.93;3.72;;;9.30;99.90;;;;;;5048198;28;20032;-73
2022/06/21 04:14:48;;;;;;;5.32;4.03;;;9.50;99.90;;;;;;5043393;28;20562;-72
2022/06/21 04:17:39;;;;;;;4.57;3.80;;;9.60;99.90;;;;;;5056667;28;20141;-72
2022/06/21 04:20:15;;;;;;;6.03;3.55;;;9.80;99.90;;;;;;5056593;28;20017;-73
2022/06/21 04:22:50;;;;;;;4.47;3.45;;;9.90;99.90;;;;;;5056662;28;20517;-72
2022/06/21 04:25:40;;;;;;;5.32;3.90;;;10.00;99.90;;;;;;5074998;28;20506;-73
2022/06/21 04:28:14;;;;;;;4.10;3.70;;;10.10;99.90;;;;;;5025314;28;20061;-71
2022/06/21 04:31:04;;;;;;;5.82;3.88;;;10.00;99.90;;;;;;5053788;28;20048;-72
2022/06/21 04:33:36;;;;;;;5.53;3.25;;;10.00;99.90;;;;;;5054518;28;20546;-72
2022/06/21 04:36:12;;;;;;;3.72;3.30;;;10.00;99.90;;;;;;5074345;28;20029;-73
2022/06/21 04:38:46;;;;;;;6.15;3.88;;;10.00;99.90;;;;;;5074176;28;20104;-71
2022/06/21 04:41:22;;;;;;;4.50;3.00;;;10.00;99.90;;;;;;5073713;28;20029;-72
2022/06/21 04:44:14;;;;;;;4.38;3.55;;;10.30;99.90;;;;;;5069314;28;20025;-73
2022/06/21 04:46:47;;;;;;;3.95;3.53;;;10.40;99.90;;;;;;5035724;28;20040;-72
2022/06/21 04:49:13;;;;;;;5.43;3.60;;;10.30;99.90;;;;;;5036178;28;20029;-73
2022/06/21 04:51:48;;;;;;;4.35;3.58;;;10.50;99.90;;;;;;5038588;28;20409;-73
2022/06/21 04:54:27;;;;;;;4.78;3.85;;;10.60;99.90;;;;;;5073663;28;20024;-72
2022/06/21 04:57:09;;;;;;;4.93;3.78;;;10.90;99.90;;;;;;5051450;28;20036;-73
2022/06/21 04:59:45;;;;;;;6.60;3.13;;;10.70;99.90;;;;;;5041142;28;20540;-72
2022/06/21 05:02:27;;;;;;;4.13;3.00;;;11.00;99.90;;;;;;5053069;28;20025;-72
2022/06/21 05:05:04;;;;;;;3.22;2.90;;;11.30;99.90;;;;;;5039300;28;20029;-72
2022/06/21 05:07:34;;;;;;;4.60;3.55;;;11.40;99.90;;;;;;5053722;28;20046;-72
2022/06/21 05:10:00;;;;;;;4.40;3.00;;;11.40;99.90;;;;;;5048414;28;20055;-72
2022/06/21 05:12:37;;;;;;;6.18;3.15;;;11.40;99.90;;;;;;5048504;28;20020;-73
2022/06/21 05:15:16;;;;;;;3.25;2.78;;;11.50;99.90;;;;;;5053731;28;20386;-72
2022/06/21 05:17:48;;;;;;;6.65;3.35;;;11.70;99.90;;;;;;5057322;28;20032;-71
2022/06/21 05:20:20;;;;;;;5.20;2.67;;;11.80;99.90;;;;;;5072278;28;20020;-70
2022/06/21 05:22:52;;;;;;;4.07;3.10;;;12.10;99.90;;;;;;5055356;28;20119;-71
2022/06/21 05:25:23;;;;;;;5.35;3.17;;;11.90;99.90;;;;;;5073430;28;20521;-70
2022/06/21 05:28:04;;;;;;;4.20;3.10;;;12.00;99.90;;;;;;5073370;28;20032;-71
2022/06/21 05:30:51;;;;;;;5.53;3.55;;;11.90;99.90;;;;;;5072551;28;20032;-71
2022/06/21 05:33:25;;;;;;;5.32;3.85;;;11.90;99.90;;;;;;5072987;28;20074;-71
2022/06/21 05:35:52;;;;;;;7.72;3.58;;;11.80;99.90;;;;;;5073229;28;20405;-71
2022/06/21 05:38:22;;;;;;;3.90;3.50;;;12.20;99.90;;;;;;5059537;28;20558;-71
2022/06/21 05:41:29;;;;;;;3.80;3.50;;;12.20;99.90;;;;;;5052575;28;20048;-70
2022/06/21 05:43:58;;;;;;;3.92;3.00;;;12.20;99.90;;;;;;5053222;28;20462;-71
2022/06/21 05:46:28;;;;;;;5.75;3.13;;;12.30;99.90;;;;;;5053100;28;20036;-71
2022/06/21 05:48:55;;;;;;;5.28;3.05;;;12.80;99.90;;;;;;5052963;28;20021;-73
2022/06/21 05:51:31;;;;;;;5.03;2.83;;;12.80;99.90;;;;;;5052125;28;20513;-71
2022/06/21 05:54:04;;;;;;;5.38;2.90;;;12.70;99.90;;;;;;5052755;28;20592;-70
2022/06/21 05:56:31;;;;;;;4.25;3.00;;;12.60;99.90;;;;;;5052768;28;20443;-71
2022/06/21 05:59:03;;;;;;;3.25;2.90;;;12.90;99.90;;;;;;5052725;28;20044;-71
2022/06/21 06:01:39;;;;;;;3.78;2.83;;;13.20;99.90;;;;;;5052002;28;20502;-70
2022/06/21 06:04:11;;;;;;;5.35;2.80;;;12.90;99.90;;;;;;5052513;28;20025;-71
2022/06/21 06:06:40;;;;;;;4.85;2.80;;;13.10;99.90;;;;;;5071499;28;20033;-71
2022/06/21 06:09:30;;;;;;;5.20;3.00;;;13.30;99.90;;;;;;5072543;28;20016;-71
2022/06/21 06:12:04;;;;;;;5.88;3.08;;;13.40;99.90;;;;;;5062719;28;20108;-70
2022/06/21 06:14:49;;;;;;;3.88;2.70;;;13.60;99.90;;;;;;5052304;28;20029;-71
2022/06/21 06:17:50;;;;;;;5.88;3.05;;;13.70;99.90;;;;;;5052382;28;20031;-70
2022/06/21 06:20:26;;;;;;;5.07;3.00;;;13.70;99.90;;;;;;5051737;28;20025;-70
2022/06/21 06:23:06;;;;;;;3.97;3.10;;;13.70;99.90;;;;;;5034201;28;20060;-71
2022/06/21 06:25:39;;;;;;;4.90;2.80;;;14.00;99.90;;;;;;5052155;28;20033;-71
2022/06/21 06:28:20;;;;;;;5.72;3.45;;;14.10;99.90;;;;;;5052209;28;20413;-70
2022/06/21 06:31:21;;;;;;;4.70;3.05;;;14.20;99.90;;;;;;5051528;28;20047;-70
2022/06/21 06:34:07;;;;;;;3.25;2.85;;;14.20;99.90;;;;;;5052014;28;20063;-70
2022/06/21 06:36:42;;;;;;;6.05;2.85;;;14.30;99.90;;;;;;5052117;28;20439;-70
2022/06/21 06:39:35;;;;;;;3.72;2.80;;;14.10;99.90;;;;;;5051841;28;20033;-71
2022/06/21 06:42:10;;;;;;;6.32;3.55;;;14.30;99.90;;;;;;5031589;28;20025;-70
2022/06/21 06:44:43;;;;;;;5.47;3.15;;;14.40;99.90;;;;;;5051823;28;20082;-72
2022/06/21 06:47:35;;;;;;;6.32;3.22;;;14.80;99.90;;;;;;5070092;28;20078;-71
2022/06/21 06:50:04;;;;;;;4.22;2.78;;;14.60;99.90;;;;;;5062597;28;20415;-71
2022/06/21 06:52:37;;;;;;;6.55;2.78;;;14.90;99.90;;;;;;5051037;28;20029;-70
2022/06/21 06:55:17;;;;;;;4.43;2.90;;;15.10;99.90;;;;;;5051948;28;20490;-71
2022/06/21 06:58:04;;;;;;;4.90;3.20;;;15.40;99.90;;;;;;5051710;28;20029;-71
2022/06/21 07:00:46;;;;;;;4.32;2.58;;;15.20;99.90;;;;;;5050895;28;20033;-71
2022/06/21 07:03:17;;;;;;;7.30;3.35;;;15.20;99.90;;;;;;5051582;28;20033;-71
2022/06/21 07:06:10;;;;;;;4.20;2.90;;;15.30;99.90;;;;;;5051636;28;20514;-71
2022/06/21 07:09:08;;;;;;;4.65;3.03;;;15.40;99.90;;;;;;5051452;28;20025;-70
2022/06/21 07:11:40;;;;;;;3.70;2.85;;;15.50;99.90;;;;;;5045574;28;20036;-70
2022/06/21 07:14:13;;;;;;;3.60;3.13;;;15.60;99.90;;;;;;5033434;28;20533;-70
2022/06/21 07:16:41;;;;;;;3.85;2.72;;;15.70;99.90;;;;;;5051442;28;20020;-70
2022/06/21 07:19:09;;;;;;;7.10;3.45;;;16.00;99.90;;;;;;5051345;28;20067;-70
2022/06/21 07:21:36;;;;;;;4.57;3.15;;;16.00;99.90;;;;;;5050701;28;20021;-70
2022/06/21 07:24:01;;;;;;;4.47;2.88;;;16.20;99.90;;;;;;5033531;28;20124;-71
2022/06/21 07:26:30;;;;;;;8.63;3.53;;;16.30;99.90;;;;;;5051516;28;20096;-71
2022/06/21 07:29:04;;;;;;;6.80;3.17;;;16.30;99.90;;;;;;5051302;28;20028;-71
2022/06/21 07:31:35;;;;;;;9.65;3.10;;;16.40;99.90;;;;;;5050374;28;20495;-70
2022/06/21 07:34:13;;;;;;;4.82;2.85;;;16.70;99.90;;;;;;5051466;28;20029;-72
2022/06/21 07:36:38;;;;;;;4.97;2.67;;;17.00;99.90;;;;;;5051446;28;20025;-70
2022/06/21 07:39:16;;;;;;;5.90;2.60;;;17.10;99.90;;;;;;5051698;28;20398;-70
2022/06/21 07:41:44;;;;;;;5.72;2.58;;;17.30;99.90;;;;;;5051018;28;20021;-70
2022/06/21 07:44:20;;;;;;;5.00;2.90;;;17.40;99.90;;;;;;5053248;28;20025;-70
2022/06/21 07:46:52;;;;;;;6.72;3.15;;;17.30;99.90;;;;;;5055183;28;20059;-70
2022/06/21 07:49:37;;;;;;;3.95;2.40;;;17.20;99.90;;;;;;5037233;28;20039;-70
2022/06/21 07:52:12;;;;;;;6.60;2.88;;;17.30;99.90;;;;;;5054335;28;20021;-70
2022/06/21 07:54:55;;;;;;;3.80;2.30;;;17.10;99.90;;;;;;5054830;28;20032;-70
2022/06/21 07:57:30;;;;;;;4.93;2.50;;;17.50;99.90;;;;;;5055031;28;20414;-70
2022/06/21 08:00:06;;;;;;;5.57;2.20;;;17.50;99.90;;;;;;5054855;28;20021;-70
2022/06/21 08:08:31;;;;;;;5.97;2.78;;;17.60;99.90;;;;;;5054872;28;20028;-70
2022/06/21 08:11:08;;;;;;;4.07;2.95;;;18.00;99.90;;;;;;5054114;28;20025;-72
2022/06/21 08:13:34;;;;;;;7.28;2.40;;;17.60;99.90;;;;;;5054394;28;20025;-70
2022/06/21 08:16:17;;;;;;;5.88;2.10;;;17.90;99.90;;;;;;5054551;28;20025;-73
2022/06/21 08:19:05;;;;;;;5.45;2.42;;;17.90;99.90;;;;;;5054539;28;20029;-73
2022/06/21 08:21:44;;;;;;;5.90;2.42;;;18.30;99.90;;;;;;5042855;28;20108;-73
2022/06/21 08:24:16;;;;;;;4.38;2.10;;;18.00;99.90;;;;;;5043331;28;20029;-73
2022/06/21 08:27:00;;;;;;;4.40;2.70;;;18.20;99.90;;;;;;5055487;28;20038;-73
2022/06/21 08:29:35;;;;;;;6.40;2.50;;;18.10;99.90;;;;;;5073453;28;20208;-73
2022/06/21 08:32:05;;;;;;;3.90;2.17;;;18.20;99.90;;;;;;5073921;28;20033;-74
2022/06/21 08:34:44;;;;;;;4.13;2.20;;;18.50;99.90;;;;;;5074349;28;20094;-74
2022/06/21 08:37:15;;;;;;;2.92;2.10;;;18.70;99.90;;;;;;5074255;28;20470;-74
2022/06/21 08:40:08;;;;;;;6.55;2.10;;;18.60;99.90;;;;;;5074258;28;20421;-74
2022/06/21 08:42:33;;;;;;;2.72;1.70;;;18.80;99.90;;;;;;5073372;28;20024;-73
2022/06/21 08:48:29;;;;;;;3.47;1.80;;;19.40;99.90;;;;;;5073339;28;20035;-74
2022/06/21 08:51:06;;;;;;;3.30;2.10;;;19.20;99.90;;;;;;5053416;28;20032;-73
2022/06/21 08:54:00;;;;;;;7.90;2.10;;;19.00;99.90;;;;;;5053753;28;20061;-73
2022/06/21 08:56:40;;;;;;;4.35;2.05;;;19.20;99.90;;;;;;5052635;28;20387;-74
2022/06/21 08:59:26;;;;;;;4.97;2.25;;;19.30;99.90;;;;;;5065425;28;20024;-73
2022/06/21 09:02:07;;;;;;;3.25;1.90;;;19.20;99.90;;;;;;5055094;28;20028;-73
2022/06/21 09:04:38;;;;;;;4.47;2.35;;;19.10;99.90;;;;;;5074064;28;20033;-74
2022/06/21 09:07:09;;;;;;;4.97;2.33;;;19.10;99.90;;;;;;5073665;28;20402;-74
2022/06/21 09:09:57;;;;;;;6.55;2.15;;;18.60;99.90;;;;;;5055499;28;20027;-74
2022/06/21 09:12:31;;;;;;;4.03;2.15;;;19.00;99.90;;;;;;5072899;28;20039;-74
2022/06/21 09:15:06;;;;;;;6.03;2.45;;;19.00;99.90;;;;;;5055494;28;20028;-74
2022/06/21 09:17:44;;;;;;;4.40;2.10;;;19.30;99.90;;;;;;5073503;28;20028;-73
2022/06/21 09:20:22;;;;;;;3.72;1.90;;;19.70;99.90;;;;;;5073518;28;20382;-74
2022/06/21 09:23:06;;;;;;;4.13;1.65;;;19.40;99.90;;;;;;5066986;28;20103;-80
2022/06/21 09:26:01;;;;;;;4.60;2.03;;;19.90;99.30;;;;;;5058441;28;20032;-70
2022/06/21 09:28:43;;;;;;;3.97;2.40;;;19.60;99.10;;;;;;5048706;28;20025;-70
2022/06/21 09:31:20;;;;;;;3.42;1.73;;;19.80;98.90;;;;;;5052608;28;20119;-70
2022/06/21 09:33:59;;;;;;;5.38;1.70;;;20.10;99.10;;;;;;5056083;28;20047;-70
2022/06/21 09:36:40;;;;;;;5.13;1.83;;;20.30;98.40;;;;;;5073180;28;20027;-70
2022/06/21 09:39:30;;;;;;;4.60;1.98;;;20.10;98.70;;;;;;5073041;28;20111;-70
2022/06/21 09:42:37;;;;;;;3.72;1.95;;;20.10;98.60;;;;;;5072135;28;20593;-71
2022/06/21 09:45:30;;;;;;;4.30;1.85;;;19.70;98.60;;;;;;5064442;28;20457;-70
2022/06/21 09:48:17;;;;;;;3.90;2.03;;;20.00;98.40;;;;;;5072840;28;20025;-70
2022/06/21 09:51:20;;;;;;;4.28;1.80;;;20.10;98.90;;;;;;5057750;28;20044;-70
2022/06/21 09:53:54;;;;;;;3.85;1.70;;;20.90;99.10;;;;;;5038938;28;20079;-70
2022/06/21 09:56:31;;;;;;;4.25;1.80;;;21.20;98.40;;;;;;5052636;28;20024;-70
2022/06/21 09:59:20;;;;;;;3.58;1.80;;;21.10;98.10;;;;;;5052650;28;20028;-71
2022/06/21 10:02:24;;;;;;;4.32;1.83;;;21.20;97.60;;;;;;5051485;28;20642;-70
2022/06/21 10:05:12;;;;;;;4.93;2.03;;;21.20;97.80;;;;;;5052553;28;20025;-70
2022/06/21 10:08:14;;;;;;;2.90;1.80;;;21.20;97.70;;;;;;5052217;28;20025;-70
2022/06/21 10:11:01;;;;;;;4.43;2.00;;;21.20;98.30;;;;;;5033559;28;20047;-70
2022/06/21 10:13:41;;;;;;;3.35;1.95;;;21.00;97.80;;;;;;5052145;28;20025;-71
2022/06/21 10:16:44;;;;;;;3.28;2.03;;;21.30;98.20;;;;;;5049842;28;20028;-70
2022/06/21 10:19:44;;;;;;;6.50;1.92;;;21.30;97.60;;;;;;5052256;28;20483;-70
2022/06/21 10:22:29;;;;;;;2.95;2.10;;;21.20;97.90;;;;;;5052251;28;20025;-70
2022/06/21 10:25:17;;;;;;;3.75;1.80;;;21.70;97.30;;;;;;5052200;28;20025;-70
2022/06/21 10:27:55;;;;;;;5.10;1.95;;;22.00;96.70;;;;;;5052116;28;20017;-71
2022/06/21 10:30:32;;;;;;;4.50;1.83;;;22.00;97.30;;;;;;5051529;28;20021;-70
2022/06/21 10:33:07;;;;;;;2.78;1.80;;;22.50;97.60;;;;;;5049485;28;20033;-70
2022/06/21 10:35:51;;;;;;;6.43;1.90;;;22.90;96.80;;;;;;5052103;28;20107;-70
2022/06/21 10:38:32;;;;;;;4.18;1.98;;;22.80;96.50;;;;;;5052142;28;20044;-70
2022/06/21 10:41:19;;;;;;;4.00;1.80;;;22.50;97.00;;;;;;5033447;28;20021;-70
2022/06/21 10:43:59;;;;;;;2.42;1.80;;;22.80;96.90;;;;;;5052358;28;20056;-70
2022/06/21 10:46:49;;;;;;;4.30;1.48;;;23.20;95.40;;;;;;5052084;28;20054;-70
2022/06/21 10:49:48;;;;;;;3.92;2.05;;;23.70;95.70;;;;;;5068676;28;20101;-70
2022/06/21 10:52:38;;;;;;;4.18;1.73;;;23.90;93.40;;;;;;5050502;28;20479;-70
2022/06/21 10:55:40;;;;;;;3.20;1.88;;;23.90;94.10;;;;;;5054332;28;20406;-70
2022/06/21 10:58:24;;;;;;;2.63;1.40;;;23.90;93.70;;;;;;5051558;28;20021;-70
2022/06/21 11:03:43;;;;;;;3.50;1.90;;;23.70;94.40;;;;;;5051482;28;20040;-71
2022/06/21 11:06:11;;;;;;;3.33;1.95;;;23.60;94.30;;;;;;5051325;28;20025;-70
2022/06/21 11:09:07;;;;;;;4.57;1.90;;;23.20;93.20;;;;;;5053584;28;20021;-70
2022/06/21 11:11:50;;;;;;;4.82;1.60;;;24.30;93.00;;;;;;5044691;28;20025;-70
2022/06/21 11:14:39;;;;;;;2.70;1.75;;;24.80;91.60;;;;;;5053740;28;20533;-70
2022/06/21 11:17:17;;;;;;;3.22;1.38;;;24.90;91.70;;;;;;5053547;28;20027;-69
2022/06/21 11:19:54;;;;;;;3.97;1.70;;;24.90;90.50;;;;;;5070924;28;20555;-70
2022/06/21 11:22:26;;;;;;;3.15;1.52;;;24.50;90.40;;;;;;5070775;28;20090;-70
2022/06/21 11:25:06;;;;;;;3.20;1.42;;;24.60;89.80;;;;;;5071296;28;20021;-70
2022/06/21 11:28:02;;;;;;;4.75;1.50;;;24.30;89.90;;;;;;5071309;28;20016;-70
2022/06/21 11:30:47;;;;;;;3.20;1.60;;;24.90;90.60;;;;;;5049063;28;20026;-69
2022/06/21 11:33:34;;;;;;;4.47;1.63;;;24.20;89.90;;;;;;5048406;28;21296;-69
2022/06/21 11:36:11;;;;;;;3.30;1.73;;;24.70;89.50;;;;;;5039301;28;20112;-69
2022/06/21 11:38:48;;;;;;;4.07;1.50;;;24.90;88.00;;;;;;5051203;28;20139;-69
2022/06/21 11:44:30;;;;;;;3.17;1.67;;;25.70;87.40;;;;;;5051234;28;20505;-69
2022/06/21 11:47:43;;;;;;;2.28;1.40;;;25.50;86.50;;;;;;5047903;28;20026;-70
2022/06/21 11:50:19;;;;;;;2.35;1.30;;;25.70;87.00;;;;;;4961246;28;20025;-69
2022/06/21 11:52:51;;;;;;;3.42;1.50;;;25.20;87.60;;;;;;5042129;28;20040;-69
2022/06/21 11:55:39;;;;;;;2.80;1.58;;;24.90;86.70;;;;;;5050926;28;20483;-70
2022/06/21 11:58:23;;;;;;;1.90;1.30;;;24.80;85.10;;;;;;5050310;28;20036;-69
2022/06/21 12:01:05;;;;;;;3.97;1.38;;;24.80;85.90;;;;;;5050468;28;20029;-69
2022/06/21 12:03:38;;;;;;;2.17;1.50;;;25.10;87.60;;;;;;5050942;28;20387;-69
2022/06/21 12:06:19;;;;;;;3.03;1.30;;;25.30;86.60;;;;;;5050872;28;20021;-69
2022/06/21 12:08:55;;;;;;;5.00;1.50;;;25.50;85.60;;;;;;5050706;28;20425;-70
2022/06/21 12:11:23;;;;;;;;;;;25.30;86.40;;;;;;5050664;28;20509;-70
2022/06/21 12:14:00;;;;;;;2.00;1.60;;;24.20;84.90;;;;;;5050836;28;20294;-70
2022/06/21 12:16:32;;;;;;;2.92;1.42;;;23.90;85.70;;;;;;5050976;28;20018;-70
2022/06/21 12:19:03;;;;;;;2.95;1.63;;;24.10;89.70;;;;;;5025952;28;20021;-70
2022/06/21 12:21:38;;;;;;;2.47;1.70;;;24.60;86.90;;;;;;5050159;28;20116;-70
2022/06/21 12:24:12;;;;;;;2.72;1.50;;;24.80;86.50;;;;;;5050779;28;20025;-70
2022/06/21 12:26:40;;;;;;;2.80;1.60;;;25.20;85.00;;;;;;5033121;28;20402;-70
2022/06/21 12:29:14;;;;;;;3.45;1.55;;;25.60;84.40;;;;;;5051048;28;20025;-70
2022/06/21 12:31:51;;;;;;;2.92;1.48;;;26.30;86.80;;;;;;5053503;28;20481;-70
2022/06/21 12:34:26;;;;;;;3.47;1.45;;;26.80;82.90;;;;;;5054125;28;20051;-70
2022/06/21 12:36:59;;;;;;;2.25;1.60;;;26.80;82.60;;;;;;5039736;28;20028;-69
2022/06/21 12:39:43;;;;;;;2.40;1.60;;;27.30;82.10;;;;;;5046956;28;20021;-69
2022/06/21 12:42:14;;;;;;;3.65;1.67;;;27.30;84.20;;;;;;5053143;28;20021;-70
2022/06/21 12:45:03;;;;;;;1.42;1.30;;;27.20;81.60;;;;;;5050460;28;20056;-70
2022/06/21 12:47:52;;;;;;;1.90;1.17;;;27.90;81.50;;;;;;5046906;28;20029;-70
2022/06/21 12:50:23;;;;;;;3.35;1.75;;;28.50;80.20;;;;;;4996096;28;20125;-69
2022/06/21 12:53:10;;;;;;;2.05;1.40;;;28.60;77.20;;;;;;5053726;28;20479;-70
2022/06/21 12:56:05;;;;;;;2.70;1.50;;;26.80;78.40;;;;;;5025265;28;20112;-69
2022/06/21 12:58:55;;;;;;;1.77;1.20;;;27.00;79.00;;;;;;5053460;28;20025;-70
2022/06/21 13:01:47;;;;;;;3.80;1.60;;;27.70;78.90;;;;;;5052931;28;20033;-69
2022/06/21 13:04:50;;;;;;;1.73;1.30;;;28.20;78.10;;;;;;5067109;28;20032;-70
2022/06/21 13:07:55;;;;;;;1.58;1.17;;;28.10;79.00;;;;;;5073839;28;20020;-69
2022/06/21 13:10:34;;;;;;;3.85;1.70;;;27.80;77.70;;;;;;5073197;28;20028;-70
2022/06/21 13:13:30;;;;;;;2.80;1.30;;;27.80;77.50;;;;;;5069974;28;20028;-70
2022/06/21 13:16:03;;;;;;;2.77;1.70;;;27.80;77.50;;;;;;5073514;28;20017;-70
2022/06/21 13:18:39;;;;;;;2.03;1.20;;;27.60;75.40;;;;;;5073704;28;20017;-70
2022/06/21 13:21:14;;;;;;;1.48;1.20;;;27.60;75.90;;;;;;5072744;28;20016;-70
2022/06/21 13:23:42;;;;;;;2.90;1.33;;;28.80;75.10;;;;;;5058964;28;20029;-70
2022/06/21 13:26:40;;;;;;;1.50;1.40;;;28.80;74.80;;;;;;5052230;28;20089;-70
2022/06/21 13:29:22;;;;;;;1.90;1.50;;;27.80;74.80;;;;;;5039189;28;20510;-70
2022/06/21 13:31:55;;;;;;;2.15;1.30;;;28.40;74.70;;;;;;5048010;28;20044;-70
2022/06/21 13:34:45;;;;;;;1.45;1.35;;;28.40;73.70;;;;;;5051017;28;20024;-71
2022/06/21 13:37:19;;;;;;;3.70;1.58;;;28.70;73.80;;;;;;5053034;28;20048;-70
2022/06/21 13:40:17;;;;;;;3.72;1.55;;;28.90;74.40;;;;;;5053242;28;20021;-71
2022/06/21 13:42:57;;;;;;;1.58;1.48;;;29.10;75.30;;;;;;5052485;28;20360;-70
2022/06/21 13:46:02;;;;;;;2.08;1.40;;;30.40;73.90;;;;;;5035119;28;20025;-71
2022/06/21 13:48:34;;;;;;;2.97;1.50;;;30.30;73.80;;;;;;5053065;28;20391;-70
2022/06/21 13:51:13;;;;;;;2.55;1.42;;;29.30;73.10;;;;;;5052216;28;20021;-70
2022/06/21 13:54:00;;;;;;;1.40;1.30;;;30.40;72.50;;;;;;5052658;28;20447;-70
2022/06/21 13:56:51;;;;;;;1.95;1.45;;;30.10;72.40;;;;;;5052788;28;20448;-70
2022/06/21 13:59:24;;;;;;;2.75;1.30;;;29.70;72.90;;;;;;5052726;28;20119;-70
2022/06/21 14:02:20;;;;;;;2.03;1.63;;;29.70;72.30;;;;;;5051986;28;20068;-70
2022/06/21 14:04:52;;;;;;;1.65;1.55;;;30.20;72.40;;;;;;5033464;28;20379;-70